Time;durP1;ratioP1;P1;durP2;ratioP2;P2;SDS_P1;SDS_P2;PMS_P1;PMS_P2;Temp;Humidity;BMP_temperature;BMP_pressure;BME280_temperature;BME280_humidity;BME280_pressure;Samples;Min_cycle;Max_cycle;Signal;HPM_P1;HPM_P2
2022/07/30 00:02:08;;;;;;;8.65;5.95;;;18.30;99.90;;;;;;5052092;28;20044;-50
2022/07/30 00:04:34;;;;;;;8.95;6.93;;;18.20;99.90;;;;;;5050231;28;20267;-49
2022/07/30 00:06:59;;;;;;;9.38;6.72;;;18.20;99.90;;;;;;5050858;28;20476;-51
2022/07/30 00:09:25;;;;;;;11.05;6.95;;;18.30;99.90;;;;;;5050948;28;20033;-48
2022/07/30 00:11:51;;;;;;;10.45;7.57;;;18.30;99.90;;;;;;5052045;28;20037;-54
2022/07/30 00:14:17;;;;;;;9.98;7.30;;;18.10;99.90;;;;;;5050233;28;20158;-51
2022/07/30 00:16:43;;;;;;;9.35;7.05;;;18.20;99.90;;;;;;5051290;28;20059;-52
2022/07/30 00:19:10;;;;;;;8.98;6.50;;;18.30;99.90;;;;;;5051240;28;20044;-49
2022/07/30 00:21:35;;;;;;;10.07;6.93;;;18.20;99.90;;;;;;5049543;28;20041;-52
2022/07/30 00:24:01;;;;;;;10.90;7.30;;;18.00;99.90;;;;;;5050833;28;20056;-50
2022/07/30 00:26:27;;;;;;;8.85;6.72;;;18.00;99.90;;;;;;5049841;28;20068;-53
2022/07/30 00:28:53;;;;;;;10.70;6.90;;;17.90;99.90;;;;;;5050652;28;20036;-48
2022/07/30 00:31:18;;;;;;;13.75;6.90;;;17.90;99.90;;;;;;5051060;28;20091;-48
2022/07/30 00:33:44;;;;;;;11.90;7.47;;;17.80;99.90;;;;;;5051427;28;20033;-50
2022/07/30 00:36:09;;;;;;;10.45;7.05;;;17.90;99.90;;;;;;5051539;28;20037;-50
2022/07/30 00:38:35;;;;;;;14.82;8.10;;;17.80;99.90;;;;;;5050994;28;20040;-45
2022/07/30 00:41:01;;;;;;;10.50;7.32;;;17.80;99.90;;;;;;5051798;28;20048;-50
2022/07/30 00:43:26;;;;;;;12.80;8.02;;;17.80;99.90;;;;;;5051768;28;20040;-51
2022/07/30 00:45:52;;;;;;;12.38;6.78;;;17.80;99.90;;;;;;5049815;28;20484;-53
2022/07/30 00:48:18;;;;;;;11.13;6.85;;;17.90;99.90;;;;;;5051728;28;20053;-48
2022/07/30 00:50:43;;;;;;;11.20;7.50;;;17.70;99.90;;;;;;5051146;28;20137;-48
2022/07/30 00:53:09;;;;;;;11.05;7.05;;;17.70;99.90;;;;;;5051107;28;20044;-52
2022/07/30 00:55:35;;;;;;;10.45;7.47;;;17.80;99.90;;;;;;5050674;28;20053;-49
2022/07/30 00:58:01;;;;;;;11.55;7.90;;;17.80;99.90;;;;;;5051234;28;20116;-52
2022/07/30 01:00:27;;;;;;;10.90;7.57;;;17.70;99.90;;;;;;5050887;28;20037;-52
2022/07/30 01:02:53;;;;;;;11.05;7.82;;;17.60;99.90;;;;;;5051536;28;20044;-51
2022/07/30 01:05:19;;;;;;;9.70;6.97;;;17.50;99.90;;;;;;5051116;28;20045;-51
2022/07/30 01:07:44;;;;;;;11.90;8.52;;;17.60;99.90;;;;;;5050911;28;20040;-51
2022/07/30 01:10:13;;;;;;;10.63;7.15;;;17.70;99.90;;;;;;5050825;28;20041;-53
2022/07/30 01:12:40;;;;;;;9.13;7.30;;;17.70;99.90;;;;;;5051035;28;20111;-53
2022/07/30 01:15:09;;;;;;;7.68;6.88;;;17.70;99.90;;;;;;5051294;28;20041;-51
2022/07/30 01:17:35;;;;;;;11.60;7.30;;;17.70;99.90;;;;;;5049628;28;20033;-53
2022/07/30 01:20:05;;;;;;;9.93;7.10;;;17.50;99.90;;;;;;5051495;28;20065;-50
2022/07/30 01:22:50;;;;;;;9.02;7.53;;;17.50;99.90;;;;;;5050979;28;20035;-47
2022/07/30 01:25:31;;;;;;;10.90;7.57;;;17.60;99.90;;;;;;5050906;28;20514;-50
2022/07/30 01:28:07;;;;;;;9.75;6.93;;;17.50;99.90;;;;;;5050957;28;20036;-50
2022/07/30 01:30:37;;;;;;;10.27;7.55;;;17.50;99.90;;;;;;5050791;28;20128;-49
2022/07/30 01:33:05;;;;;;;10.02;7.43;;;17.50;99.90;;;;;;5050755;28;20460;-51
2022/07/30 01:35:33;;;;;;;7.93;5.20;;;17.50;99.90;;;;;;5050806;28;20103;-49
2022/07/30 01:38:00;;;;;;;6.80;3.17;;;17.50;99.90;;;;;;5050266;28;20044;-48
2022/07/30 01:40:28;;;;;;;5.43;3.00;;;17.40;99.90;;;;;;5050657;28;20076;-49
2022/07/30 01:42:57;;;;;;;5.82;3.53;;;17.30;99.90;;;;;;5049096;28;20098;-50
2022/07/30 01:45:25;;;;;;;9.82;5.20;;;17.20;99.90;;;;;;5050264;28;20548;-49
2022/07/30 01:47:57;;;;;;;9.10;5.18;;;17.20;99.90;;;;;;5050925;28;20086;-49
2022/07/30 01:50:24;;;;;;;9.23;4.78;;;17.10;99.90;;;;;;5050743;28;20087;-48
2022/07/30 01:52:52;;;;;;;8.93;4.88;;;17.30;99.90;;;;;;5049419;28;20033;-53
2022/07/30 01:55:24;;;;;;;8.60;4.90;;;17.40;99.90;;;;;;5050299;28;20099;-50
2022/07/30 01:57:51;;;;;;;7.00;4.75;;;17.40;99.90;;;;;;5050001;28;20037;-50
2022/07/30 02:00:17;;;;;;;7.40;4.80;;;17.40;99.90;;;;;;5050691;28;20211;-50
2022/07/30 02:02:43;;;;;;;7.88;5.50;;;17.30;99.90;;;;;;5049574;28;20108;-53
2022/07/30 02:05:09;;;;;;;8.43;5.65;;;17.20;99.90;;;;;;5050521;28;20041;-53
2022/07/30 02:07:53;;;;;;;9.40;5.50;;;17.20;99.90;;;;;;5050439;28;20060;-49
2022/07/30 02:10:48;;;;;;;10.13;6.00;;;17.20;99.90;;;;;;5050128;28;20048;-49
2022/07/30 02:13:19;;;;;;;12.05;6.43;;;17.10;99.90;;;;;;5044347;28;20441;-51
2022/07/30 02:15:50;;;;;;;14.35;7.57;;;17.00;99.90;;;;;;5050141;28;20041;-49
2022/07/30 02:18:26;;;;;;;11.35;7.50;;;16.90;99.90;;;;;;5049299;28;20037;-53
2022/07/30 02:21:05;;;;;;;11.05;7.50;;;17.00;99.90;;;;;;5050408;28;20025;-49
2022/07/30 02:23:37;;;;;;;10.38;7.25;;;17.00;99.90;;;;;;5050299;28;20480;-50
2022/07/30 02:26:04;;;;;;;9.90;7.40;;;16.90;99.90;;;;;;5050411;28;20036;-50
2022/07/30 02:28:35;;;;;;;10.02;7.50;;;16.80;99.90;;;;;;5048795;28;20044;-51
2022/07/30 02:31:01;;;;;;;9.35;7.60;;;16.80;99.90;;;;;;5050270;28;20120;-51
2022/07/30 02:33:36;;;;;;;10.15;7.10;;;16.80;99.90;;;;;;5049966;28;20041;-52
2022/07/30 02:36:02;;;;;;;11.45;8.50;;;16.70;99.90;;;;;;5049063;28;20041;-51
2022/07/30 02:38:29;;;;;;;13.13;8.10;;;16.70;99.90;;;;;;5049574;28;20120;-47
2022/07/30 02:40:58;;;;;;;14.18;8.35;;;16.80;99.90;;;;;;5050222;28;20029;-50
2022/07/30 02:43:25;;;;;;;11.00;7.47;;;16.80;99.90;;;;;;5050241;28;20037;-50
2022/07/30 02:45:52;;;;;;;10.90;7.60;;;16.70;99.90;;;;;;5050006;28;20049;-52
2022/07/30 02:48:20;;;;;;;9.82;6.70;;;16.60;99.90;;;;;;5049909;28;20095;-49
2022/07/30 02:50:48;;;;;;;11.27;7.30;;;16.70;99.90;;;;;;5049939;28;20068;-50
2022/07/30 02:53:15;;;;;;;12.13;7.47;;;16.60;99.90;;;;;;5048473;28;20041;-49
2022/07/30 02:55:42;;;;;;;13.20;6.82;;;16.60;99.90;;;;;;5051513;28;20033;-49
2022/07/30 02:58:09;;;;;;;9.43;6.85;;;16.70;99.90;;;;;;5050642;28;20048;-50
2022/07/30 03:00:37;;;;;;;10.18;7.13;;;16.60;99.90;;;;;;5048762;28;20041;-51
2022/07/30 03:03:06;;;;;;;15.15;7.63;;;16.70;99.90;;;;;;5051144;28;20167;-49
2022/07/30 03:05:33;;;;;;;13.73;6.72;;;16.60;99.90;;;;;;5049571;28;20040;-50
2022/07/30 03:08:00;;;;;;;9.95;6.57;;;16.60;99.90;;;;;;5050184;28;20048;-50
2022/07/30 03:10:26;;;;;;;14.07;7.15;;;16.60;99.90;;;;;;5050522;28;20044;-52
2022/07/30 03:12:53;;;;;;;10.48;6.35;;;16.60;99.90;;;;;;5053430;28;20136;-49
2022/07/30 03:15:19;;;;;;;13.60;7.07;;;16.60;99.90;;;;;;5052910;28;20045;-51
2022/07/30 03:17:50;;;;;;;10.80;6.70;;;16.50;99.90;;;;;;5052989;28;20037;-51
2022/07/30 03:20:20;;;;;;;13.80;6.50;;;16.60;99.90;;;;;;5054146;28;20491;-51
2022/07/30 03:22:50;;;;;;;9.38;6.72;;;16.60;99.90;;;;;;5053374;28;20387;-53
2022/07/30 03:25:27;;;;;;;15.23;7.43;;;16.60;99.90;;;;;;5052230;28;20112;-51
2022/07/30 03:27:56;;;;;;;15.65;7.07;;;16.60;99.90;;;;;;5052085;28;20041;-52
2022/07/30 03:30:23;;;;;;;11.10;6.80;;;16.60;99.90;;;;;;5052822;28;20476;-48
2022/07/30 03:32:51;;;;;;;9.70;6.22;;;16.60;99.90;;;;;;5053349;28;20476;-51
2022/07/30 03:35:17;;;;;;;12.55;6.90;;;16.60;99.90;;;;;;5052561;28;20044;-53
2022/07/30 03:37:44;;;;;;;12.07;7.00;;;16.60;99.90;;;;;;5052976;28;20388;-52
2022/07/30 03:40:12;;;;;;;11.05;6.32;;;16.70;99.90;;;;;;5052180;28;20114;-55
2022/07/30 03:42:38;;;;;;;9.60;6.22;;;16.60;99.90;;;;;;5052842;28;20029;-53
2022/07/30 03:45:06;;;;;;;12.52;6.55;;;16.70;99.90;;;;;;5052421;28;20080;-51
2022/07/30 03:47:36;;;;;;;9.10;5.88;;;16.70;99.90;;;;;;5052422;28;20049;-50
2022/07/30 03:50:02;;;;;;;11.73;6.90;;;16.70;99.90;;;;;;5052715;28;20538;-48
2022/07/30 03:52:29;;;;;;;10.48;5.85;;;16.80;99.90;;;;;;5052827;28;20033;-50
2022/07/30 03:54:55;;;;;;;10.02;6.28;;;16.70;99.90;;;;;;5051018;28;20467;-52
2022/07/30 03:57:21;;;;;;;9.40;5.93;;;16.80;99.90;;;;;;5052280;28;20040;-51
2022/07/30 03:59:46;;;;;;;10.50;6.30;;;16.80;99.90;;;;;;5052524;28;20036;-52
2022/07/30 04:02:12;;;;;;;7.97;5.68;;;16.70;99.90;;;;;;5052335;28;20033;-51
2022/07/30 04:04:42;;;;;;;10.38;5.80;;;16.60;99.90;;;;;;5051043;28;20040;-52
2022/07/30 04:07:08;;;;;;;8.73;4.97;;;16.70;99.90;;;;;;5052345;28;20459;-49
2022/07/30 04:09:34;;;;;;;10.25;6.25;;;16.50;99.90;;;;;;5052080;28;20071;-50
2022/07/30 04:12:00;;;;;;;9.25;6.38;;;16.60;99.90;;;;;;5052130;28;20073;-51
2022/07/30 04:14:26;;;;;;;7.78;5.15;;;16.60;99.90;;;;;;5052492;28;20563;-52
2022/07/30 04:17:07;;;;;;;5.32;3.83;;;16.60;99.90;;;;;;5051722;28;20447;-50
2022/07/30 04:19:40;;;;;;;24.13;4.32;;;16.50;99.90;;;;;;5051238;28;20488;-52
2022/07/30 04:22:08;;;;;;;6.35;3.95;;;16.30;99.90;;;;;;5051477;28;20377;-49
2022/07/30 04:24:35;;;;;;;5.10;3.80;;;16.30;99.90;;;;;;5052054;28;20494;-51
2022/07/30 04:27:02;;;;;;;4.72;3.88;;;16.20;99.90;;;;;;5050452;28;20127;-53
2022/07/30 04:29:28;;;;;;;5.72;4.10;;;16.30;99.90;;;;;;5051870;28;20053;-52
2022/07/30 04:31:55;;;;;;;6.07;4.60;;;16.20;99.90;;;;;;5052096;28;20522;-50
2022/07/30 04:34:21;;;;;;;6.82;4.90;;;16.30;99.90;;;;;;5051552;28;20041;-49
2022/07/30 04:36:46;;;;;;;7.70;5.22;;;16.30;99.90;;;;;;5051865;28;20136;-46
2022/07/30 04:39:12;;;;;;;10.13;6.30;;;16.30;99.90;;;;;;5049801;28;20131;-50
2022/07/30 04:41:38;;;;;;;13.25;5.78;;;16.40;99.90;;;;;;5050588;28;20036;-53
2022/07/30 04:44:04;;;;;;;11.77;6.78;;;16.40;99.90;;;;;;5051757;28;20039;-48
2022/07/30 04:46:31;;;;;;;12.90;7.93;;;16.60;99.90;;;;;;5051454;28;20516;-51
2022/07/30 04:48:56;;;;;;;12.50;7.35;;;16.60;99.90;;;;;;5051372;28;20041;-52
2022/07/30 04:51:27;;;;;;;14.85;7.68;;;16.60;99.90;;;;;;5051431;28;20040;-51
2022/07/30 04:53:54;;;;;;;14.57;7.20;;;16.70;99.90;;;;;;5051575;28;20040;-53
2022/07/30 04:56:21;;;;;;;14.35;7.80;;;16.70;99.90;;;;;;5051398;28;20452;-47
2022/07/30 04:58:47;;;;;;;13.30;7.88;;;16.70;99.90;;;;;;5049843;28;20075;-52
2022/07/30 05:01:28;;;;;;;13.20;7.80;;;16.80;99.90;;;;;;5051369;28;20037;-51
2022/07/30 05:03:56;;;;;;;13.15;7.78;;;16.80;99.90;;;;;;5051330;28;20045;-53
2022/07/30 05:06:24;;;;;;;12.05;7.53;;;16.80;99.90;;;;;;5050892;28;20094;-50
2022/07/30 05:08:50;;;;;;;14.95;7.10;;;16.90;99.90;;;;;;5050759;28;20468;-52
2022/07/30 05:11:15;;;;;;;14.15;8.20;;;17.00;99.90;;;;;;5051377;28;20033;-50
2022/07/30 05:13:47;;;;;;;19.08;7.35;;;17.00;99.90;;;;;;5049769;28;20051;-52
2022/07/30 05:16:13;;;;;;;16.08;7.78;;;17.10;99.90;;;;;;5050834;28;20049;-53
2022/07/30 05:18:39;;;;;;;13.15;7.68;;;17.10;99.90;;;;;;5051041;28;20047;-51
2022/07/30 05:21:06;;;;;;;12.90;7.68;;;17.10;99.90;;;;;;5049742;28;20520;-49
2022/07/30 05:23:32;;;;;;;11.02;7.55;;;17.10;99.90;;;;;;5050937;28;20056;-50
2022/07/30 05:25:57;;;;;;;14.60;7.53;;;17.20;99.90;;;;;;5050992;28;20094;-51
2022/07/30 05:28:25;;;;;;;11.93;7.47;;;17.20;99.90;;;;;;5051320;28;20044;-50
2022/07/30 05:30:52;;;;;;;12.10;7.68;;;17.20;99.90;;;;;;5050923;28;20103;-51
2022/07/30 05:33:19;;;;;;;13.23;8.10;;;17.20;99.90;;;;;;5048538;28;20072;-53
2022/07/30 05:35:45;;;;;;;11.95;7.22;;;17.20;99.90;;;;;;5050582;28;20033;-52
2022/07/30 05:38:10;;;;;;;12.27;7.47;;;17.20;99.90;;;;;;5050794;28;20033;-46
2022/07/30 05:40:36;;;;;;;14.45;7.20;;;17.30;99.90;;;;;;5050542;28;20530;-50
2022/07/30 05:43:02;;;;;;;15.60;7.10;;;17.30;99.90;;;;;;5050448;28;20373;-49
2022/07/30 05:45:27;;;;;;;12.35;7.53;;;17.40;99.90;;;;;;5050383;28;20044;-48
2022/07/30 05:47:53;;;;;;;14.88;7.47;;;17.50;99.90;;;;;;5050674;28;20068;-54
2022/07/30 05:50:19;;;;;;;12.40;6.97;;;17.60;99.90;;;;;;5049601;28;20048;-51
2022/07/30 05:52:44;;;;;;;16.88;8.30;;;17.40;99.90;;;;;;5049130;28;20048;-51
2022/07/30 05:55:10;;;;;;;12.43;6.85;;;17.50;99.90;;;;;;5049156;28;20049;-50
2022/07/30 05:57:36;;;;;;;19.15;7.60;;;17.50;99.90;;;;;;5050580;28;20123;-49
2022/07/30 06:00:06;;;;;;;10.57;6.97;;;17.60;99.90;;;;;;5050653;28;20179;-51
2022/07/30 06:02:32;;;;;;;12.48;7.40;;;17.70;99.90;;;;;;5050347;28;20119;-49
2022/07/30 06:04:57;;;;;;;11.65;7.20;;;17.80;99.90;;;;;;5050534;28;20503;-52
2022/07/30 06:07:23;;;;;;;14.75;7.00;;;17.80;99.90;;;;;;5050126;28;20036;-50
2022/07/30 06:09:49;;;;;;;11.15;6.63;;;17.80;99.90;;;;;;5049975;28;20048;-51
2022/07/30 06:12:15;;;;;;;14.48;7.25;;;17.90;99.90;;;;;;5048914;28;20476;-51
2022/07/30 06:14:40;;;;;;;10.25;6.57;;;17.80;99.90;;;;;;5050342;28;20560;-50
2022/07/30 06:17:06;;;;;;;7.60;6.00;;;17.90;99.90;;;;;;5049167;28;20476;-52
2022/07/30 06:19:32;;;;;;;12.57;5.90;;;18.00;99.90;;;;;;5050274;28;20045;-50
2022/07/30 06:21:57;;;;;;;11.18;6.03;;;18.10;99.90;;;;;;5050177;28;20049;-49
2022/07/30 06:24:23;;;;;;;11.63;6.03;;;18.10;99.90;;;;;;5048460;28;20495;-50
2022/07/30 06:26:49;;;;;;;10.98;6.05;;;18.10;99.90;;;;;;5050326;28;20041;-50
2022/07/30 06:29:14;;;;;;;12.25;5.63;;;18.10;99.90;;;;;;5049702;28;20452;-52
2022/07/30 06:31:40;;;;;;;10.88;5.45;;;18.10;99.90;;;;;;5050255;28;20272;-50
2022/07/30 06:34:06;;;;;;;11.63;5.60;;;18.20;99.90;;;;;;5049565;28;20045;-50
2022/07/30 06:36:32;;;;;;;10.73;5.47;;;18.40;99.90;;;;;;5050340;28;20359;-48
2022/07/30 06:38:58;;;;;;;12.93;5.88;;;18.40;99.90;;;;;;5049821;28;20124;-52
2022/07/30 06:41:23;;;;;;;12.57;5.20;;;18.50;99.90;;;;;;5050077;28;20092;-50
2022/07/30 06:43:49;;;;;;;16.08;5.78;;;18.50;99.90;;;;;;5049299;28;20386;-48
2022/07/30 06:46:16;;;;;;;11.80;5.20;;;18.60;99.90;;;;;;5053645;28;20072;-54
2022/07/30 06:48:42;;;;;;;9.95;5.10;;;18.60;99.90;;;;;;5054011;28;20037;-48
2022/07/30 06:51:07;;;;;;;11.38;5.10;;;18.80;99.90;;;;;;5054323;28;20140;-48
2022/07/30 06:53:33;;;;;;;11.20;5.32;;;18.80;99.90;;;;;;5053614;28;20120;-51
2022/07/30 06:55:59;;;;;;;14.52;5.10;;;18.90;99.90;;;;;;5052287;28;20041;-48
2022/07/30 06:58:25;;;;;;;10.35;5.00;;;19.00;99.90;;;;;;5053758;28;20047;-51
2022/07/30 07:00:50;;;;;;;8.95;5.05;;;19.00;99.90;;;;;;5053384;28;20052;-51
2022/07/30 07:03:16;;;;;;;9.85;4.50;;;19.00;99.90;;;;;;5053460;28;20033;-49
2022/07/30 07:05:42;;;;;;;11.73;4.95;;;18.90;99.90;;;;;;5053312;28;20090;-51
2022/07/30 07:08:07;;;;;;;10.52;5.00;;;19.00;99.90;;;;;;5053450;28;20066;-48
2022/07/30 07:10:33;;;;;;;8.90;4.60;;;18.90;99.90;;;;;;5051800;28;20033;-48
2022/07/30 07:12:59;;;;;;;12.00;4.60;;;19.10;99.90;;;;;;5052412;28;20094;-49
2022/07/30 07:15:25;;;;;;;10.73;4.00;;;19.00;99.90;;;;;;5053085;28;20402;-48
2022/07/30 07:17:51;;;;;;;9.65;4.53;;;19.10;99.90;;;;;;5053236;28;20037;-50
2022/07/30 07:20:17;;;;;;;10.55;4.85;;;19.10;99.90;;;;;;5053287;28;20040;-52
2022/07/30 07:22:42;;;;;;;8.65;4.30;;;19.10;99.90;;;;;;5053030;28;20033;-46
2022/07/30 07:25:08;;;;;;;8.52;4.25;;;19.10;99.90;;;;;;5052152;28;20112;-50
2022/07/30 07:27:35;;;;;;;8.13;4.63;;;19.30;99.90;;;;;;5053194;28;20377;-49
2022/07/30 07:30:01;;;;;;;9.90;4.40;;;19.40;99.90;;;;;;5052851;28;20110;-50
2022/07/30 07:32:27;;;;;;;10.57;4.32;;;19.30;99.90;;;;;;5053144;28;20456;-49
2022/07/30 07:34:53;;;;;;;8.13;4.03;;;19.50;99.90;;;;;;5052747;28;20099;-51
2022/07/30 07:37:18;;;;;;;8.43;4.07;;;19.60;99.90;;;;;;5052807;28;20079;-48
2022/07/30 07:39:44;;;;;;;9.93;3.78;;;19.70;99.90;;;;;;5052278;28;20033;-52
2022/07/30 07:42:09;;;;;;;9.50;3.60;;;19.70;99.90;;;;;;5053171;28;20036;-49
2022/07/30 07:44:35;;;;;;;7.43;3.55;;;19.70;99.90;;;;;;5052997;28;20068;-48
2022/07/30 07:47:01;;;;;;;10.90;4.00;;;19.60;99.90;;;;;;5052441;28;20072;-48
2022/07/30 07:49:26;;;;;;;8.70;3.80;;;19.50;99.90;;;;;;5050924;28;20108;-52
2022/07/30 07:51:52;;;;;;;8.23;3.42;;;19.60;99.90;;;;;;5052517;28;20044;-53
2022/07/30 07:54:18;;;;;;;9.82;3.67;;;19.60;99.90;;;;;;5052447;28;20052;-49
2022/07/30 07:56:43;;;;;;;6.85;3.53;;;19.30;99.90;;;;;;5051654;28;20033;-50
2022/07/30 07:59:09;;;;;;;8.02;3.13;;;19.10;99.90;;;;;;5044930;28;20429;-48
2022/07/30 08:01:35;;;;;;;8.73;3.50;;;19.30;99.90;;;;;;5048208;28;20090;-50
2022/07/30 08:04:00;;;;;;;8.40;3.30;;;19.40;99.90;;;;;;5048310;28;20112;-52
2022/07/30 08:06:26;;;;;;;10.13;3.35;;;19.60;99.90;;;;;;5047313;28;20052;-48
2022/07/30 08:08:53;;;;;;;9.43;3.20;;;19.70;99.90;;;;;;5048059;28;21024;-51
2022/07/30 08:11:19;;;;;;;7.97;3.20;;;19.70;99.90;;;;;;5047849;28;20068;-50
2022/07/30 08:13:44;;;;;;;8.30;3.55;;;19.70;99.90;;;;;;5047426;28;20141;-54
2022/07/30 08:16:10;;;;;;;8.45;3.05;;;19.90;99.90;;;;;;5048090;28;20041;-53
2022/07/30 08:18:36;;;;;;;9.18;3.10;;;20.20;99.90;;;;;;5047845;28;20086;-52
2022/07/30 08:21:03;;;;;;;9.98;3.10;;;20.00;99.90;;;;;;5047291;28;20041;-53
2022/07/30 08:23:29;;;;;;;6.22;2.30;;;19.80;99.90;;;;;;5044719;28;20040;-53
2022/07/30 08:25:57;;;;;;;8.63;2.60;;;19.50;99.90;;;;;;5045033;28;20041;-50
2022/07/30 08:28:23;;;;;;;6.78;2.40;;;19.70;99.90;;;;;;5043446;28;20484;-48
2022/07/30 08:30:49;;;;;;;6.97;2.72;;;19.70;99.90;;;;;;5044299;28;20111;-48
2022/07/30 08:33:15;;;;;;;7.85;2.60;;;19.80;99.90;;;;;;5043908;28;20123;-52
2022/07/30 08:35:41;;;;;;;7.22;2.80;;;19.90;99.90;;;;;;5043300;28;20036;-52
2022/07/30 08:38:07;;;;;;;6.88;3.22;;;20.00;99.90;;;;;;5044182;28;20029;-49
2022/07/30 08:40:34;;;;;;;5.35;2.60;;;20.10;99.90;;;;;;5043753;28;20503;-51
2022/07/30 08:43:04;;;;;;;9.20;2.53;;;20.00;99.90;;;;;;5043668;28;20530;-50
2022/07/30 08:45:31;;;;;;;7.35;2.65;;;20.10;99.90;;;;;;5043879;28;20559;-49
2022/07/30 08:47:59;;;;;;;6.72;2.83;;;20.20;99.90;;;;;;5026652;28;20061;-51
2022/07/30 08:50:25;;;;;;;6.53;2.63;;;20.50;99.90;;;;;;5042127;28;20081;-51
2022/07/30 08:52:54;;;;;;;6.40;2.85;;;20.40;99.90;;;;;;5042136;28;20106;-49
2022/07/30 08:55:21;;;;;;;6.30;2.58;;;20.20;99.90;;;;;;5042306;28;20045;-47
2022/07/30 08:57:48;;;;;;;5.40;2.63;;;20.30;99.90;;;;;;5044330;28;20528;-50
2022/07/30 09:00:15;;;;;;;9.77;2.63;;;20.50;99.90;;;;;;5044427;28;20025;-49
2022/07/30 09:02:41;;;;;;;7.55;2.63;;;20.80;99.90;;;;;;5042770;28;20037;-51
2022/07/30 09:05:08;;;;;;;10.10;3.13;;;20.90;99.90;;;;;;5044035;28;20048;-49
2022/07/30 09:07:34;;;;;;;9.45;2.60;;;21.00;99.90;;;;;;5043627;28;20449;-53
2022/07/30 09:10:00;;;;;;;5.85;2.72;;;21.00;99.90;;;;;;5043812;28;20484;-46
2022/07/30 09:12:39;;;;;;;7.75;2.90;;;21.20;99.90;;;;;;5043092;28;20036;-48
2022/07/30 09:15:11;;;;;;;6.85;2.45;;;21.20;99.90;;;;;;5045973;28;20052;-47
2022/07/30 09:17:51;;;;;;;6.63;2.60;;;21.40;99.90;;;;;;5047989;28;20044;-49
2022/07/30 09:20:22;;;;;;;7.63;2.95;;;21.60;99.90;;;;;;5046329;28;20163;-49
2022/07/30 09:22:59;;;;;;;7.13;2.67;;;21.70;99.90;;;;;;5046792;28;20037;-52
2022/07/30 09:25:42;;;;;;;7.88;2.10;;;21.80;99.90;;;;;;5039626;28;20037;-49
2022/07/30 09:28:09;;;;;;;7.07;2.45;;;21.70;99.90;;;;;;5044001;28;20123;-48
2022/07/30 09:30:55;;;;;;;7.03;2.67;;;22.00;99.90;;;;;;5045992;28;20041;-51
2022/07/30 09:33:32;;;;;;;7.60;2.60;;;21.90;99.90;;;;;;5040324;28;22759;-53
2022/07/30 09:35:58;;;;;;;7.00;2.20;;;22.00;99.90;;;;;;5046335;28;20049;-54
2022/07/30 09:38:25;;;;;;;6.30;2.20;;;22.20;99.90;;;;;;5046749;28;20075;-45
2022/07/30 09:40:52;;;;;;;5.05;2.45;;;22.50;99.90;;;;;;5047775;28;20071;-48
2022/07/30 09:43:17;;;;;;;8.95;2.60;;;22.60;99.90;;;;;;5048287;28;20029;-52
2022/07/30 09:45:51;;;;;;;6.63;3.00;;;22.80;99.90;;;;;;5048650;28;20037;-51
2022/07/30 09:48:26;;;;;;;8.68;3.63;;;22.30;99.90;;;;;;5047993;28;20084;-49
2022/07/30 09:50:54;;;;;;;7.38;2.35;;;22.80;99.90;;;;;;5048708;28;20077;-48
2022/07/30 09:53:21;;;;;;;8.40;2.60;;;22.80;99.90;;;;;;5048796;28;20041;-51
2022/07/30 09:55:48;;;;;;;4.97;2.20;;;22.80;99.90;;;;;;5050192;28;20041;-51
2022/07/30 09:58:14;;;;;;;7.10;2.17;;;22.80;99.90;;;;;;5050606;28;20045;-51
2022/07/30 10:00:40;;;;;;;5.88;2.20;;;22.70;99.90;;;;;;5050373;28;20040;-52
2022/07/30 10:03:17;;;;;;;6.32;1.92;;;22.90;99.90;;;;;;5049361;28;20473;-52
2022/07/30 10:05:57;;;;;;;8.80;2.10;;;22.90;99.90;;;;;;5050255;28;20488;-51
2022/07/30 10:08:42;;;;;;;6.20;1.90;;;22.90;99.90;;;;;;5050150;28;20534;-52
2022/07/30 10:11:25;;;;;;;6.28;1.90;;;23.00;99.90;;;;;;5049768;28;20127;-46
2022/07/30 10:13:54;;;;;;;6.00;1.93;;;22.60;99.90;;;;;;5049940;28;20041;-48
2022/07/30 10:16:20;;;;;;;5.15;2.30;;;22.70;99.90;;;;;;5049595;28;20300;-50
2022/07/30 10:18:47;;;;;;;5.68;1.85;;;22.60;99.90;;;;;;5050298;28;20175;-50
2022/07/30 10:21:14;;;;;;;4.50;2.25;;;22.70;99.90;;;;;;5054137;28;20040;-49
2022/07/30 10:23:40;;;;;;;6.72;1.80;;;22.70;99.90;;;;;;5053942;28;20122;-53
2022/07/30 10:26:07;;;;;;;4.88;2.03;;;22.70;99.90;;;;;;5054399;28;20488;-50
2022/07/30 10:28:33;;;;;;;5.03;1.65;;;22.70;99.90;;;;;;5053924;28;20043;-50
2022/07/30 10:30:59;;;;;;;5.50;1.98;;;22.80;99.90;;;;;;5052021;28;20135;-51
2022/07/30 10:33:27;;;;;;;5.57;1.95;;;23.00;99.90;;;;;;5051908;28;20457;-52
2022/07/30 10:35:53;;;;;;;5.70;1.60;;;22.90;99.90;;;;;;5054056;28;20394;-49
2022/07/30 10:38:33;;;;;;;5.72;1.98;;;23.00;99.90;;;;;;5053823;28;20037;-51
2022/07/30 10:41:13;;;;;;;8.32;1.80;;;23.00;99.90;;;;;;5053902;28;20120;-53
2022/07/30 10:44:13;;;;;;;5.25;1.95;;;23.00;99.90;;;;;;5054191;28;20036;-49
2022/07/30 10:47:04;;;;;;;7.50;1.80;;;23.10;99.90;;;;;;5053847;28;20500;-50
2022/07/30 10:49:30;;;;;;;4.57;1.70;;;23.30;99.90;;;;;;5053779;28;20037;-53
2022/07/30 10:51:56;;;;;;;4.35;1.83;;;23.30;99.90;;;;;;5053459;28;20037;-49
2022/07/30 10:54:38;;;;;;;5.22;1.77;;;23.20;99.90;;;;;;5052381;28;20040;-51
2022/07/30 10:57:20;;;;;;;6.13;2.08;;;23.00;99.90;;;;;;5050909;28;20108;-51
2022/07/30 10:59:48;;;;;;;4.93;2.10;;;22.90;99.90;;;;;;5051930;28;20087;-53
2022/07/30 11:02:18;;;;;;;7.38;2.08;;;22.90;99.90;;;;;;5050697;28;20047;-50
2022/07/30 11:04:44;;;;;;;6.50;1.90;;;22.90;99.90;;;;;;5051493;28;20044;-50
2022/07/30 11:07:26;;;;;;;8.82;2.13;;;23.40;99.90;;;;;;5050827;28;20476;-53
2022/07/30 11:10:00;;;;;;;5.75;1.75;;;23.30;99.90;;;;;;5050961;28;20041;-52
2022/07/30 11:12:52;;;;;;;9.57;1.88;;;23.50;99.90;;;;;;5065240;28;20048;-49
2022/07/30 11:15:17;;;;;;;3.90;1.60;;;23.40;99.90;;;;;;5046588;28;20040;-51
2022/07/30 11:18:01;;;;;;;5.93;1.77;;;23.40;99.90;;;;;;5047545;28;20044;-51
2022/07/30 11:20:28;;;;;;;4.57;1.35;;;23.50;99.80;;;;;;5046697;28;20079;-50
2022/07/30 11:23:27;;;;;;;5.78;1.92;;;23.20;99.90;;;;;;5048870;28;20025;-51
2022/07/30 11:25:53;;;;;;;6.35;1.50;;;23.30;99.00;;;;;;5042751;28;20053;-52
2022/07/30 11:28:37;;;;;;;3.70;1.40;;;23.60;99.90;;;;;;5048365;28;20056;-52
2022/07/30 11:31:21;;;;;;;5.30;1.85;;;23.80;97.60;;;;;;5048078;28;20068;-50
2022/07/30 11:33:46;;;;;;;5.57;2.35;;;23.80;98.40;;;;;;5048534;28;20063;-52
2022/07/30 11:36:12;;;;;;;4.18;1.65;;;23.60;99.10;;;;;;5048302;28;20463;-54
2022/07/30 11:38:51;;;;;;;5.00;1.70;;;23.70;98.50;;;;;;5053506;28;20052;-53
2022/07/30 11:41:17;;;;;;;6.22;1.50;;;23.80;98.40;;;;;;5048121;28;20503;-51
2022/07/30 11:43:43;;;;;;;4.28;1.77;;;23.90;98.80;;;;;;5045643;28;20044;-50
2022/07/30 11:46:18;;;;;;;5.35;1.90;;;23.80;98.80;;;;;;5048366;28;20102;-52
2022/07/30 11:49:04;;;;;;;7.68;1.50;;;24.10;99.10;;;;;;5048777;28;20049;-51
2022/07/30 11:51:40;;;;;;;4.25;1.38;;;24.20;98.60;;;;;;5049459;28;20049;-54
2022/07/30 11:54:09;;;;;;;6.72;1.70;;;24.40;97.80;;;;;;5046870;28;20052;-54
2022/07/30 11:56:35;;;;;;;6.15;1.77;;;24.40;97.80;;;;;;5047732;28;20044;-46
2022/07/30 11:59:03;;;;;;;4.10;1.50;;;24.80;98.30;;;;;;5047815;28;20040;-53
2022/07/30 12:01:29;;;;;;;3.88;1.35;;;24.50;98.00;;;;;;5048491;28;20041;-53
2022/07/30 12:03:55;;;;;;;4.88;1.20;;;24.80;97.30;;;;;;5051065;28;20036;-54
2022/07/30 12:06:22;;;;;;;3.78;1.17;;;24.70;95.30;;;;;;5049056;28;20032;-51
2022/07/30 12:08:51;;;;;;;2.92;0.95;;;24.90;95.40;;;;;;5062312;28;20098;-53
2022/07/30 12:11:17;;;;;;;4.57;1.20;;;24.80;95.10;;;;;;5044048;28;20041;-53
2022/07/30 12:13:53;;;;;;;3.30;1.20;;;24.90;95.40;;;;;;5044109;28;20376;-53
2022/07/30 12:16:19;;;;;;;4.32;0.88;;;25.50;95.00;;;;;;5041736;28;20465;-50
2022/07/30 12:18:45;;;;;;;3.55;0.85;;;25.40;92.40;;;;;;5044512;28;20043;-49
2022/07/30 12:21:12;;;;;;;3.08;0.90;;;25.30;89.10;;;;;;5048380;28;20048;-50
2022/07/30 12:23:40;;;;;;;2.40;0.82;;;25.20;90.50;;;;;;5051213;28;20399;-52
2022/07/30 12:26:07;;;;;;;4.18;1.00;;;25.20;91.20;;;;;;5043850;28;20044;-50
2022/07/30 12:28:34;;;;;;;3.88;1.00;;;25.10;90.00;;;;;;5048414;28;20052;-51
2022/07/30 12:31:03;;;;;;;2.97;1.02;;;25.10;89.60;;;;;;5054160;28;20045;-48
2022/07/30 12:33:29;;;;;;;4.50;0.98;;;25.40;90.80;;;;;;5034089;28;20102;-49
2022/07/30 12:35:58;;;;;;;3.67;1.02;;;25.70;90.90;;;;;;5051132;28;20080;-50
2022/07/30 12:38:25;;;;;;;3.28;0.90;;;25.60;91.10;;;;;;5051034;28;20519;-50
2022/07/30 12:40:55;;;;;;;3.92;0.90;;;25.80;90.90;;;;;;5048381;28;20041;-50
2022/07/30 12:43:44;;;;;;;2.50;0.95;;;25.70;91.90;;;;;;5047275;28;20492;-52
2022/07/30 12:46:28;;;;;;;5.78;1.23;;;25.60;91.10;;;;;;5049326;28;20132;-50
2022/07/30 12:49:03;;;;;;;3.55;1.10;;;25.40;91.20;;;;;;5046405;28;20045;-53
2022/07/30 12:51:32;;;;;;;3.22;1.00;;;25.20;90.90;;;;;;5047060;28;20040;-50